Time;durP1;ratioP1;P1;durP2;ratioP2;P2;SDS_P1;SDS_P2;PMS_P1;PMS_P2;Temp;Humidity;BMP_temperature;BMP_pressure;BME280_temperature;BME280_humidity;BME280_pressure;Samples;Min_cycle;Max_cycle;Signal;HPM_P1;HPM_P2
2023/08/01 08:29:50;;;;;;;4.28;2.47;;;;;;;15.17;100.00;95370.47;2108328;27;20563;-63
2023/08/01 08:32:03;;;;;;;4.15;2.58;;;;;;;15.37;100.00;95367.13;2084418;28;20570;-65
2023/08/01 08:34:19;;;;;;;5.60;2.22;;;;;;;15.40;100.00;95380.03;2093518;27;20959;-63
2023/08/01 08:36:36;;;;;;;5.35;2.40;;;;;;;15.46;100.00;95371.63;2100820;27;21077;-64
2023/08/01 08:37:37;;;;;;;5.55;2.50;;;;;;;15.51;100.00;95372.06;2098511;28;20196;-64
2023/08/01 08:38:40;;;;;;;5.60;2.75;;;;;;;15.57;100.00;95363.66;2096963;27;20252;-64
2023/08/01 08:39:41;;;;;;;4.00;1.90;;;;;;;15.69;100.00;95364.38;2079703;28;20197;-64
2023/08/01 08:40:52;;;;;;;4.50;2.53;;;;;;;15.75;100.00;95363.03;2079009;28;20573;-64
2023/08/01 08:41:53;;;;;;;4.68;2.42;;;;;;;15.88;100.00;95373.38;2081289;28;20236;-64
2023/08/01 08:42:59;;;;;;;5.43;2.40;;;;;;;15.99;100.00;95365.38;2078967;28;20193;-64
2023/08/01 08:44:03;;;;;;;6.57;1.85;;;;;;;16.00;100.00;95359.16;2080338;28;20221;-65
2023/08/01 08:45:06;;;;;;;10.85;3.10;;;;;;;16.06;100.00;95382.34;2087163;28;20205;-64
2023/08/01 08:46:09;;;;;;;3.67;2.10;;;;;;;16.19;100.00;95383.88;2086917;28;20201;-64
2023/08/01 08:47:12;;;;;;;5.38;2.05;;;;;;;16.14;100.00;95373.75;2084183;28;20201;-64
2023/08/01 08:48:18;;;;;;;4.95;2.33;;;;;;;16.22;100.00;95388.88;2087197;28;20200;-64
2023/08/01 08:49:21;;;;;;;3.70;2.13;;;;;;;16.14;100.00;95377.22;2090206;28;20224;-64
2023/08/01 08:50:24;;;;;;;3.53;1.90;;;;;;;16.20;100.00;95388.19;2089652;28;20287;-64
2023/08/01 08:51:28;;;;;;;3.97;1.90;;;;;;;16.18;100.00;95380.41;2087544;28;20276;-64
2023/08/01 08:52:30;;;;;;;3.85;1.75;;;;;;;16.04;100.00;95384.25;2088611;28;20196;-63
2023/08/01 09:21:34;;;;;;;2.25;1.15;;;;;;;16.13;100.00;95391.34;2084928;28;20563;-62
2023/08/01 09:23:52;;;;;;;3.33;1.30;;;;;;;16.29;100.00;95400.53;2083011;28;20548;-62
2023/08/01 09:26:17;;;;;;;2.17;1.20;;;;;;;16.40;100.00;95392.53;2084389;28;20544;-62
2023/08/01 09:27:21;;;;;;;3.30;0.85;;;;;;;16.47;100.00;95395.47;2079664;28;20651;-61
2023/08/01 09:28:23;;;;;;;1.75;0.95;;;;;;;16.48;100.00;95400.59;2079893;28;20323;-62
2023/08/01 09:29:27;;;;;;;1.88;0.95;;;;;;;16.52;100.00;95403.81;2078325;28;20225;-62
2023/08/01 09:31:56;;;;;;;2.42;0.90;;;;;;;16.51;100.00;95412.66;2101915;27;20562;-62
2023/08/01 09:32:58;;;;;;;3.28;0.90;;;;;;;16.47;100.00;95416.56;2095401;28;20199;-62
2023/08/01 09:34:00;;;;;;;2.08;1.00;;;;;;;16.59;100.00;95414.63;2089377;28;20225;-62
2023/08/01 09:35:03;;;;;;;3.08;1.00;;;;;;;16.64;100.00;95425.59;2081907;28;20198;-61
2023/08/01 09:36:05;;;;;;;3.22;1.00;;;;;;;16.66;100.00;95413.13;2082519;28;20288;-62
2023/08/01 09:37:06;;;;;;;1.52;0.80;;;;;;;16.71;100.00;95418.81;2081358;28;20245;-61
2023/08/01 09:38:08;;;;;;;1.80;1.15;;;;;;;16.81;100.00;95414.38;2084528;28;20205;-62
2023/08/01 09:39:20;;;;;;;1.42;0.70;;;;;;;16.83;99.99;95411.59;2079147;28;20791;-61
2023/08/01 09:49:55;;;;;;;1.55;0.88;;;;;;;16.73;100.00;95413.41;2084193;28;21078;-63
2023/08/01 09:51:05;;;;;;;15.50;10.55;;;;;;;16.86;100.00;95419.25;2082999;28;20204;-61
2023/08/01 09:52:07;;;;;;;8.38;5.93;;;;;;;17.07;100.00;95407.78;2082612;28;20288;-63
2023/08/01 09:53:09;;;;;;;13.50;9.68;;;;;;;17.05;100.00;95409.72;2084076;28;20207;-63
2023/08/01 09:54:10;;;;;;;3.00;1.55;;;;;;;17.18;100.00;95414.69;2076896;28;20256;-63
2023/08/01 09:55:12;;;;;;;1.63;0.90;;;;;;;17.33;100.00;95408.06;2075374;28;20201;-64
2023/08/01 09:56:16;;;;;;;3.13;0.98;;;;;;;17.39;99.99;95409.28;2074636;28;20292;-63
2023/08/01 09:57:20;;;;;;;1.98;0.82;;;;;;;17.46;97.52;95413.84;2074645;28;20198;-63
2023/08/01 09:58:24;;;;;;;1.13;0.68;;;;;;;17.50;97.66;95421.50;2073651;28;20209;-63
2023/08/01 10:20:22;;;;;;;1.10;0.60;;;;;;;16.76;91.15;95448.22;2101573;27;20565;-65
2023/08/01 10:22:40;;;;;;;1.50;0.80;;;;;;;16.78;87.45;95446.28;2083580;28;20558;-64
2023/08/01 10:23:44;;;;;;;1.63;0.80;;;;;;;17.14;86.79;95448.44;2081801;28;20254;-64
2023/08/01 10:24:47;;;;;;;1.90;0.90;;;;;;;17.57;85.97;95444.53;2073859;28;20194;-64
2023/08/01 10:25:48;;;;;;;1.58;0.70;;;;;;;17.78;83.88;95446.16;2089454;28;20188;-64
2023/08/01 10:26:50;;;;;;;1.30;0.70;;;;;;;17.91;83.15;95441.41;2090088;28;20321;-63
2023/08/01 10:28:05;;;;;;;2.75;0.90;;;;;;;18.21;83.43;95441.34;2074467;28;20661;-64
2023/08/01 10:29:07;;;;;;;1.83;0.90;;;;;;;18.54;83.87;95444.41;2074148;28;20216;-64
2023/08/01 10:30:09;;;;;;;1.60;0.70;;;;;;;18.41;81.45;95439.44;2074714;28;20817;-64
2023/08/01 10:31:12;;;;;;;4.03;1.27;;;;;;;18.58;81.40;95445.78;2074381;28;20268;-64
2023/08/01 10:32:14;;;;;;;1.40;0.70;;;;;;;18.80;81.37;95444.50;2074164;28;20285;-65
2023/08/01 10:33:15;;;;;;;1.52;0.70;;;;;;;19.01;80.59;95448.75;2074924;28;20202;-64
2023/08/01 10:34:18;;;;;;;2.95;1.05;;;;;;;19.35;80.68;95451.53;2073853;28;20305;-64
2023/08/01 10:35:19;;;;;;;1.85;0.93;;;;;;;19.77;79.75;95454.50;2074744;28;20548;-65
2023/08/01 10:36:27;;;;;;;4.30;1.00;;;;;;;19.77;79.15;95449.22;2074290;28;20197;-64
2023/08/01 10:37:47;;;;;;;1.52;0.82;;;;;;;19.34;76.83;95449.06;2075099;28;20377;-64
2023/08/01 10:38:55;;;;;;;1.60;0.90;;;;;;;19.45;78.73;95453.28;2073783;28;20202;-65
2023/08/01 10:39:58;;;;;;;1.30;0.70;;;;;;;19.36;78.77;95452.38;2073515;28;20629;-64
2023/08/01 10:41:00;;;;;;;4.55;1.10;;;;;;;19.15;77.93;95453.50;2086331;28;20192;-64
2023/08/01 10:42:05;;;;;;;2.70;0.80;;;;;;;19.56;78.09;95464.44;2087174;28;21229;-65
2023/08/01 10:43:20;;;;;;;3.08;0.90;;;;;;;19.52;78.82;95463.09;2074450;28;20605;-65
2023/08/01 10:44:21;;;;;;;1.77;0.80;;;;;;;19.09;78.85;95467.34;2073281;28;20573;-64
2023/08/01 10:45:24;;;;;;;1.70;0.95;;;;;;;19.04;76.34;95451.91;2070677;28;20310;-65
2023/08/01 10:46:29;;;;;;;2.97;0.82;;;;;;;18.85;77.02;95457.31;2074501;28;20808;-64
2023/08/01 10:47:31;;;;;;;2.10;1.10;;;;;;;19.13;78.22;95462.59;2074386;28;20202;-64
2023/08/01 10:48:33;;;;;;;1.40;0.82;;;;;;;19.78;77.03;95454.34;2074250;28;20787;-64
2023/08/01 10:49:44;;;;;;;2.38;1.00;;;;;;;19.31;75.18;95463.44;2073427;28;20301;-65
2023/08/01 10:50:54;;;;;;;2.00;0.90;;;;;;;19.40;75.13;95466.94;2073917;28;20201;-65
2023/08/01 10:51:56;;;;;;;1.70;0.85;;;;;;;19.31;74.59;95460.78;2074505;28;20213;-64
2023/08/01 10:53:06;;;;;;;2.65;1.05;;;;;;;19.00;73.13;95452.38;2074503;28;20289;-65
2023/08/01 10:54:22;;;;;;;2.30;1.00;;;;;;;19.52;74.38;95457.81;2074110;28;21143;-64
2023/08/01 10:55:23;;;;;;;1.67;0.95;;;;;;;19.39;73.96;95452.06;2074492;28;20200;-64
2023/08/01 10:56:26;;;;;;;2.70;0.90;;;;;;;19.42;75.26;95454.41;2073973;28;20239;-64
2023/08/01 10:57:29;;;;;;;2.33;1.00;;;;;;;19.64;74.26;95471.66;2073729;28;20202;-67
2023/08/01 10:58:30;;;;;;;2.50;1.17;;;;;;;19.73;74.71;95468.06;2070677;28;20834;-67
2023/08/01 10:59:32;;;;;;;2.75;1.08;;;;;;;19.67;74.25;95475.81;2070643;28;20218;-67
2023/08/01 11:00:34;;;;;;;2.97;1.27;;;;;;;20.08;74.79;95462.88;2075753;28;20240;-67
2023/08/01 11:01:48;;;;;;;2.55;0.90;;;;;;;20.30;73.14;95473.91;2074755;28;20202;-67
2023/08/01 11:02:51;;;;;;;2.25;0.80;;;;;;;20.17;73.56;95477.00;2071853;28;20240;-67
2023/08/01 11:03:53;;;;;;;2.33;1.08;;;;;;;19.61;72.51;95477.22;2070141;28;20320;-67
2023/08/01 11:05:12;;;;;;;1.98;1.08;;;;;;;19.29;74.17;95470.69;2072161;28;20243;-67
2023/08/01 11:06:14;;;;;;;2.92;1.30;;;;;;;19.63;73.85;95469.97;2074808;28;20243;-67
2023/08/01 11:07:15;;;;;;;4.28;1.25;;;;;;;19.77;74.27;95467.75;2074465;28;20220;-67
2023/08/01 11:08:17;;;;;;;3.28;1.10;;;;;;;19.68;73.48;95478.28;2074048;28;20283;-67
2023/08/01 11:09:26;;;;;;;4.03;0.80;;;;;;;19.25;71.88;95475.44;2073492;28;20316;-67
2023/08/01 11:10:29;;;;;;;2.22;1.02;;;;;;;19.16;72.23;95471.06;2073535;28;20251;-67
2023/08/01 11:11:31;;;;;;;2.20;1.00;;;;;;;19.01;72.29;95476.03;2072959;28;20212;-67
2023/08/01 11:12:37;;;;;;;2.47;1.00;;;;;;;18.84;72.92;95466.22;2072594;28;20189;-65
2023/08/01 11:13:38;;;;;;;3.30;1.35;;;;;;;18.69;73.74;95471.16;2073335;28;20220;-65
2023/08/01 11:14:40;;;;;;;3.05;1.40;;;;;;;18.83;75.42;95477.75;2074118;28;20190;-65
2023/08/01 11:15:41;;;;;;;1.73;1.05;;;;;;;18.46;73.40;95482.13;2073106;28;20288;-65
2023/08/01 11:16:44;;;;;;;3.60;1.08;;;;;;;18.44;74.21;95474.34;2073644;28;20826;-65
2023/08/01 11:17:49;;;;;;;2.83;1.20;;;;;;;18.63;74.45;95480.53;2070444;28;20225;-65
2023/08/01 11:18:51;;;;;;;2.38;1.13;;;;;;;18.79;73.47;95489.63;2071448;28;20225;-65
2023/08/01 11:20:00;;;;;;;2.15;1.10;;;;;;;18.53;74.09;95466.53;2071645;28;20759;-65
2023/08/01 11:21:02;;;;;;;3.88;1.20;;;;;;;19.46;74.37;95482.22;2071757;28;20229;-65
2023/08/01 11:22:10;;;;;;;6.28;1.42;;;;;;;19.86;71.20;95491.53;2073871;28;20325;-65
2023/08/01 11:23:11;;;;;;;2.67;1.33;;;;;;;19.66;70.51;95484.72;2073525;28;20289;-66
2023/08/01 11:24:13;;;;;;;2.30;1.20;;;;;;;19.56;70.68;95477.69;2073377;28;20226;-66
2023/08/01 11:25:15;;;;;;;4.30;1.30;;;;;;;19.85;71.89;95483.75;2074606;28;20256;-66
2023/08/01 11:26:16;;;;;;;2.38;1.02;;;;;;;20.32;69.69;95490.50;2075507;28;20201;-66
2023/08/01 11:27:18;;;;;;;2.72;1.08;;;;;;;20.28;69.62;95483.84;2074364;28;20201;-66
2023/08/01 11:28:20;;;;;;;3.88;1.52;;;;;;;21.05;69.67;95491.81;2076127;28;20568;-67
2023/08/01 11:29:22;;;;;;;3.17;1.40;;;;;;;21.07;68.31;95489.84;2076133;28;20216;-66
2023/08/01 11:30:32;;;;;;;2.90;0.95;;;;;;;20.39;68.57;95491.53;2072940;28;20224;-67
2023/08/01 11:31:34;;;;;;;4.47;1.42;;;;;;;20.06;69.35;95478.06;2070448;28;20198;-65
2023/08/01 11:32:37;;;;;;;5.40;1.45;;;;;;;20.22;68.71;95483.47;2070937;28;20194;-66
2023/08/01 11:33:39;;;;;;;1.70;1.00;;;;;;;19.95;69.58;95491.56;2070344;28;20829;-66
2023/08/01 11:34:44;;;;;;;2.47;1.10;;;;;;;19.82;69.60;95503.44;2068339;28;20193;-66
2023/08/01 11:35:53;;;;;;;2.35;1.20;;;;;;;19.74;71.59;95498.88;2068271;28;20260;-66
2023/08/01 11:36:55;;;;;;;3.78;1.10;;;;;;;20.60;70.46;95507.03;2068181;28;20506;-66
2023/08/01 11:37:58;;;;;;;2.60;1.20;;;;;;;20.91;69.12;95501.22;2068694;28;20198;-66
2023/08/01 11:39:00;;;;;;;5.53;1.25;;;;;;;21.26;69.21;95494.03;2064529;28;20229;-66
2023/08/01 11:40:03;;;;;;;4.63;1.17;;;;;;;21.25;67.64;95492.34;2067411;28;20198;-66
2023/08/01 11:41:04;;;;;;;7.15;1.17;;;;;;;21.37;64.74;95485.75;2068005;28;20198;-64
2023/08/01 11:42:06;;;;;;;3.40;1.20;;;;;;;21.28;64.72;95499.16;2067795;28;20267;-64
2023/08/01 11:43:08;;;;;;;2.13;1.20;;;;;;;20.96;66.00;95492.78;2068270;28;20218;-63
2023/08/01 11:44:11;;;;;;;2.53;1.20;;;;;;;20.96;64.28;95485.69;2068125;28;20221;-63
2023/08/01 11:45:13;;;;;;;4.47;1.10;;;;;;;20.46;67.56;95507.66;2068131;28;20769;-63
2023/08/01 11:46:14;;;;;;;2.67;1.20;;;;;;;20.65;66.45;95503.94;2069181;28;20202;-63
2023/08/01 11:47:17;;;;;;;3.20;1.10;;;;;;;20.66;64.70;95506.41;2067438;28;20195;-63
2023/08/01 11:48:20;;;;;;;3.80;1.27;;;;;;;19.97;66.34;95502.84;2069611;28;20239;-63
2023/08/01 11:49:22;;;;;;;2.60;1.10;;;;;;;19.97;67.45;95502.84;2066558;28;20226;-63
2023/08/01 11:50:25;;;;;;;3.03;1.27;;;;;;;19.63;68.53;95501.75;2066173;28;20198;-64
2023/08/01 11:51:28;;;;;;;6.55;1.55;;;;;;;19.75;67.39;95497.84;2069044;28;20205;-64
2023/08/01 11:52:30;;;;;;;3.60;1.33;;;;;;;19.90;67.06;95502.66;2066103;28;20641;-64
2023/08/01 11:53:38;;;;;;;3.10;1.30;;;;;;;20.30;67.34;95506.56;2066732;28;20756;-63
2023/08/01 11:54:45;;;;;;;3.03;1.15;;;;;;;20.79;66.23;95502.53;2066118;28;20245;-63
2023/08/01 11:55:47;;;;;;;3.53;1.60;;;;;;;20.17;67.72;95519.41;2066465;28;20284;-64
2023/08/01 11:56:49;;;;;;;3.42;1.20;;;;;;;19.97;69.02;95516.09;2070033;28;20258;-64
2023/08/01 11:57:55;;;;;;;4.78;1.40;;;;;;;19.73;68.53;95505.16;2068445;28;20229;-63
2023/08/01 11:58:57;;;;;;;2.38;1.10;;;;;;;19.66;67.98;95512.03;2068017;28;20222;-63
2023/08/01 11:59:58;;;;;;;3.13;1.63;;;;;;;19.94;67.47;95509.28;2069338;28;20260;-64
2023/08/01 12:01:08;;;;;;;5.43;1.13;;;;;;;20.52;66.70;95515.78;2066990;28;20230;-64
2023/08/01 12:02:09;;;;;;;3.35;1.42;;;;;;;20.54;66.52;95516.47;2069000;28;20214;-63
2023/08/01 12:03:13;;;;;;;3.25;1.10;;;;;;;20.22;67.15;95525.06;2068499;28;20272;-64
2023/08/01 12:04:25;;;;;;;7.53;1.23;;;;;;;20.26;67.77;95522.94;2065785;28;20218;-63
2023/08/01 12:05:27;;;;;;;3.17;1.17;;;;;;;21.01;66.23;95507.25;2067900;28;20209;-63
2023/08/01 12:06:31;;;;;;;4.35;1.20;;;;;;;21.06;63.71;95508.59;2068348;28;20198;-64
2023/08/01 12:07:33;;;;;;;3.50;1.33;;;;;;;21.34;63.38;95512.66;2068828;28;20204;-64
2023/08/01 12:08:34;;;;;;;4.20;1.40;;;;;;;21.62;62.94;95515.03;2064533;28;20198;-64
2023/08/01 12:09:36;;;;;;;5.50;1.13;;;;;;;21.51;62.63;95510.81;2067708;28;20620;-64
2023/08/01 12:10:42;;;;;;;5.25;1.50;;;;;;;21.57;63.80;95516.50;2070961;28;20285;-64
2023/08/01 12:11:43;;;;;;;3.65;1.30;;;;;;;20.87;63.81;95499.88;2066916;28;20699;-64
2023/08/01 12:12:46;;;;;;;3.97;1.15;;;;;;;20.56;64.61;95525.09;2067624;28;20203;-64
2023/08/01 12:14:00;;;;;;;3.65;1.40;;;;;;;20.58;64.28;95527.56;2067416;28;20190;-64
2023/08/01 12:15:02;;;;;;;3.92;1.25;;;;;;;20.89;64.34;95521.78;2068577;28;20202;-64
2023/08/01 12:16:03;;;;;;;3.35;1.25;;;;;;;21.23;63.27;95518.25;2069336;28;20197;-65
2023/08/01 12:17:05;;;;;;;4.65;1.33;;;;;;;21.58;62.98;95516.34;2067016;28;20245;-65
2023/08/01 12:18:06;;;;;;;2.65;1.10;;;;;;;21.26;61.99;95519.75;2067463;28;20194;-64
2023/08/01 12:19:08;;;;;;;3.25;1.25;;;;;;;21.03;62.58;95523.81;2066144;28;20222;-64
2023/08/01 12:20:10;;;;;;;2.53;1.20;;;;;;;20.64;63.22;95524.28;2069956;28;20198;-65
2023/08/01 12:21:12;;;;;;;3.40;1.40;;;;;;;20.70;64.07;95525.50;2068681;28;20237;-64
2023/08/01 12:22:14;;;;;;;2.00;1.00;;;;;;;21.16;64.58;95519.88;2067688;28;20312;-65
2023/08/01 12:23:16;;;;;;;1.80;1.00;;;;;;;21.13;62.99;95521.03;2064699;28;20297;-65
2023/08/01 12:24:17;;;;;;;2.47;1.00;;;;;;;20.98;62.87;95527.97;2065076;28;20302;-65
2023/08/01 12:25:19;;;;;;;5.55;1.10;;;;;;;20.99;62.55;95500.44;2064612;28;20621;-64
2023/08/01 12:26:20;;;;;;;4.93;1.70;;;;;;;20.74;62.88;95518.09;2064999;28;20199;-65
2023/08/01 12:27:22;;;;;;;3.20;1.40;;;;;;;20.82;62.33;95526.91;2066866;28;20703;-65
2023/08/01 12:28:26;;;;;;;2.20;1.10;;;;;;;20.44;62.36;95515.72;2067928;28;20691;-64
2023/08/01 12:29:28;;;;;;;3.65;1.38;;;;;;;20.64;63.51;95513.69;2066382;28;20219;-64
2023/08/01 12:30:29;;;;;;;3.95;1.42;;;;;;;20.63;62.95;95520.00;2065605;28;20201;-64
2023/08/01 12:31:31;;;;;;;4.25;1.20;;;;;;;20.20;64.08;95524.38;2068909;28;20198;-64
2023/08/01 12:32:34;;;;;;;7.85;1.13;;;;;;;20.07;64.67;95516.84;2067213;28;20202;-64
2023/08/01 12:33:36;;;;;;;3.33;1.30;;;;;;;20.04;63.89;95523.28;2069404;28;20190;-64
2023/08/01 12:34:38;;;;;;;5.50;1.48;;;;;;;20.59;62.85;95521.28;2068648;28;20211;-64
2023/08/01 12:35:41;;;;;;;2.60;1.15;;;;;;;20.32;64.18;95509.88;2068457;28;20194;-67
2023/08/01 12:36:42;;;;;;;3.15;1.30;;;;;;;20.45;64.44;95514.75;2067043;28;20275;-67
2023/08/01 12:37:44;;;;;;;4.90;1.20;;;;;;;20.34;63.33;95496.47;2068232;28;20201;-67
2023/08/01 12:38:45;;;;;;;3.58;1.00;;;;;;;20.91;64.07;95516.31;2063983;28;20202;-67
2023/08/01 12:39:47;;;;;;;3.72;1.25;;;;;;;21.21;63.49;95514.91;2065260;28;20198;-67
2023/08/01 12:40:48;;;;;;;3.75;1.20;;;;;;;21.16;63.76;95510.09;2068747;28;20187;-67
2023/08/01 12:41:50;;;;;;;6.65;1.40;;;;;;;21.11;63.44;95514.25;2068492;28;20229;-67
2023/08/01 12:42:51;;;;;;;2.70;1.05;;;;;;;20.80;63.42;95504.19;2066196;28;20210;-67
2023/08/01 12:43:53;;;;;;;2.30;1.33;;;;;;;20.92;63.36;95521.47;2063918;28;20565;-67
2023/08/01 12:44:54;;;;;;;3.42;1.10;;;;;;;20.55;63.12;95517.28;2065621;28;20336;-67
2023/08/01 12:45:58;;;;;;;3.40;1.30;;;;;;;20.67;63.68;95524.00;2067743;28;20206;-67
2023/08/01 12:46:59;;;;;;;4.38;1.48;;;;;;;20.35;63.45;95508.72;2068634;28;20230;-67
2023/08/01 12:48:00;;;;;;;2.38;1.10;;;;;;;20.16;63.36;95520.38;2068220;28;20657;-67
2023/08/01 12:49:02;;;;;;;3.58;1.17;;;;;;;20.11;64.16;95520.84;2066903;28;20275;-67
2023/08/01 12:50:04;;;;;;;4.13;1.38;;;;;;;20.10;64.35;95521.84;2068566;28;20197;-67
2023/08/01 12:51:06;;;;;;;5.70;1.00;;;;;;;20.12;64.86;95521.69;2068601;28;20198;-67
2023/08/01 12:52:07;;;;;;;3.28;1.10;;;;;;;20.12;63.88;95525.16;2070028;28;20202;-67
2023/08/01 12:53:10;;;;;;;1.88;1.17;;;;;;;20.60;63.91;95519.47;2067914;28;20548;-67
2023/08/01 12:54:11;;;;;;;2.00;1.10;;;;;;;20.89;62.39;95537.72;2066596;28;20226;-67
2023/08/01 12:55:13;;;;;;;3.35;1.20;;;;;;;21.18;61.14;95521.38;2067581;28;20194;-67
2023/08/01 12:56:14;;;;;;;4.43;1.38;;;;;;;21.41;60.97;95527.88;2064342;28;20837;-67
2023/08/01 12:57:16;;;;;;;2.08;1.10;;;;;;;21.71;60.79;95533.63;2068111;28;20197;-67
2023/08/01 12:58:18;;;;;;;3.60;1.08;;;;;;;21.98;60.23;95532.47;2067538;28;20586;-67
2023/08/01 12:59:19;;;;;;;3.25;1.15;;;;;;;21.92;59.13;95531.31;2067705;28;20274;-67
2023/08/01 13:00:21;;;;;;;2.35;1.20;;;;;;;22.03;60.70;95527.50;2069131;28;20201;-68
2023/08/01 13:01:23;;;;;;;6.60;1.30;;;;;;;21.20;60.56;95542.44;2068177;28;20652;-67
2023/08/01 13:02:24;;;;;;;2.40;1.05;;;;;;;20.88;61.36;95539.50;2067328;28;20757;-67
2023/08/01 13:03:26;;;;;;;4.00;1.83;;;;;;;20.73;62.73;95535.00;2065975;28;20249;-67
2023/08/01 13:04:30;;;;;;;4.22;1.33;;;;;;;20.94;63.25;95538.06;2065844;28;20224;-67
2023/08/01 13:05:38;;;;;;;3.20;1.75;;;;;;;20.61;62.97;95537.03;2064510;28;20294;-67
2023/08/01 13:06:39;;;;;;;4.95;1.77;;;;;;;20.37;63.90;95542.03;2064501;28;20198;-67
2023/08/01 13:07:41;;;;;;;5.60;1.17;;;;;;;20.20;62.85;95545.56;2064529;28;20209;-67
2023/08/01 13:08:43;;;;;;;2.88;1.40;;;;;;;20.16;62.86;95544.22;2067479;28;20197;-67
2023/08/01 13:09:44;;;;;;;3.60;1.40;;;;;;;20.06;63.07;95545.16;2068532;28;20225;-67
2023/08/01 13:10:46;;;;;;;3.25;1.50;;;;;;;20.41;62.54;95547.06;2068253;28;20195;-67
2023/08/01 13:11:47;;;;;;;3.97;1.27;;;;;;;20.61;61.06;95539.69;2067571;28;20277;-67
2023/08/01 13:12:49;;;;;;;6.15;1.60;;;;;;;20.43;61.55;95540.59;2067091;28;20322;-67
2023/08/01 13:13:50;;;;;;;4.60;1.80;;;;;;;20.14;62.20;95547.03;2067876;28;20575;-67
2023/08/01 13:14:52;;;;;;;3.75;1.30;;;;;;;20.01;62.49;95541.28;2067426;28;20203;-67
2023/08/01 13:16:04;;;;;;;2.40;1.20;;;;;;;20.78;61.66;95545.94;2067063;28;20194;-67
2023/08/01 13:17:05;;;;;;;6.10;1.30;;;;;;;20.99;60.17;95538.41;2067439;28;20193;-67
2023/08/01 13:18:07;;;;;;;3.05;1.42;;;;;;;21.35;59.55;95540.81;2067953;28;20202;-67
2023/08/01 13:19:08;;;;;;;6.50;1.50;;;;;;;21.00;59.68;95541.88;2067310;28;20232;-67
2023/08/01 13:20:10;;;;;;;2.85;1.40;;;;;;;21.15;60.83;95540.31;2069071;28;20198;-67
2023/08/01 13:21:12;;;;;;;3.83;1.40;;;;;;;21.44;59.95;95538.19;2067308;28;20248;-68
2023/08/01 13:22:14;;;;;;;3.13;1.30;;;;;;;21.57;59.96;95548.38;2067675;28;20249;-67
2023/08/01 13:23:15;;;;;;;4.93;1.55;;;;;;;21.70;59.99;95540.78;2066922;28;20679;-67
2023/08/01 13:24:17;;;;;;;3.90;1.70;;;;;;;22.18;60.27;95535.59;2067388;28;20599;-67
2023/08/01 13:25:18;;;;;;;5.18;1.67;;;;;;;22.07;60.09;95533.28;2068454;28;20206;-67
2023/08/01 13:26:20;;;;;;;5.18;1.63;;;;;;;21.64;60.10;95542.25;2066847;28;20248;-67
2023/08/01 13:27:21;;;;;;;6.88;1.63;;;;;;;21.83;60.59;95546.41;2064076;28;20301;-67
2023/08/01 13:28:23;;;;;;;4.53;1.60;;;;;;;21.89;60.09;95560.88;2065566;28;20286;-67
2023/08/01 13:29:24;;;;;;;2.97;1.40;;;;;;;21.85;59.90;95543.59;2063568;28;20272;-67
2023/08/01 13:30:26;;;;;;;3.60;1.60;;;;;;;22.26;60.28;95551.56;2064227;28;20198;-67
2023/08/01 13:31:28;;;;;;;5.40;1.38;;;;;;;22.13;58.74;95546.75;2064106;28;20718;-67
2023/08/01 13:32:30;;;;;;;2.67;1.38;;;;;;;21.19;60.34;95538.97;2064215;28;20194;-67
2023/08/01 13:33:31;;;;;;;4.05;1.40;;;;;;;20.78;60.68;95540.66;2067998;28;20198;-67
2023/08/01 13:34:33;;;;;;;3.10;1.60;;;;;;;20.52;61.29;95539.66;2063231;28;20218;-67
2023/08/01 13:35:34;;;;;;;5.90;1.60;;;;;;;20.90;60.65;95535.88;2064208;28;20194;-65
2023/08/01 13:36:36;;;;;;;4.72;1.60;;;;;;;21.09;61.39;95535.63;2066740;28;20199;-65
2023/08/01 13:37:37;;;;;;;4.40;1.30;;;;;;;20.99;61.24;95556.16;2067967;28;20290;-65
2023/08/01 13:38:39;;;;;;;5.88;1.83;;;;;;;21.03;60.99;95538.94;2068617;28;20628;-65
2023/08/01 13:39:40;;;;;;;4.35;1.50;;;;;;;21.31;60.95;95534.19;2068322;28;20194;-65
2023/08/01 13:40:42;;;;;;;2.97;1.40;;;;;;;21.58;60.93;95532.28;2066868;28;20706;-65
2023/08/01 13:41:43;;;;;;;3.97;1.30;;;;;;;21.67;59.86;95528.66;2067364;28;20194;-67
2023/08/01 13:42:45;;;;;;;2.72;1.30;;;;;;;21.61;59.88;95523.16;2067731;28;20637;-68
2023/08/01 13:43:46;;;;;;;3.08;1.40;;;;;;;21.46;59.06;95541.53;2066188;28;20195;-65
2023/08/01 13:44:48;;;;;;;3.67;1.30;;;;;;;21.90;58.93;95530.63;2064239;28;20222;-65
2023/08/01 13:45:49;;;;;;;2.55;1.35;;;;;;;22.29;57.85;95535.25;2065083;28;20194;-65
2023/08/01 13:46:54;;;;;;;5.13;1.23;;;;;;;22.24;57.17;95528.78;2069270;28;20210;-65
2023/08/01 13:47:56;;;;;;;2.38;1.23;;;;;;;22.44;58.48;95521.31;2067320;28;20589;-65
2023/08/01 13:48:57;;;;;;;3.20;1.10;;;;;;;22.72;56.78;95531.53;2067753;28;20224;-66
2023/08/01 13:49:59;;;;;;;2.53;1.40;;;;;;;22.20;56.81;95538.94;2069898;28;20203;-66
2023/08/01 13:51:00;;;;;;;3.38;1.35;;;;;;;21.79;55.75;95538.94;2066853;28;20202;-65
2023/08/01 13:52:03;;;;;;;3.45;1.45;;;;;;;21.80;56.82;95532.63;2069009;28;20236;-65
2023/08/01 13:53:07;;;;;;;3.15;1.40;;;;;;;21.86;57.34;95531.97;2069258;28;20201;-65
2023/08/01 13:54:09;;;;;;;4.60;1.27;;;;;;;22.06;58.36;95532.47;2063753;28;20310;-65
2023/08/01 13:55:10;;;;;;;4.40;1.30;;;;;;;22.32;58.07;95524.28;2064147;28;20206;-65
2023/08/01 13:56:12;;;;;;;4.90;1.85;;;;;;;22.42;57.37;95540.06;2064563;28;20198;-65
2023/08/01 13:57:14;;;;;;;8.07;1.67;;;;;;;22.42;57.35;95540.06;2067286;28;20225;-65
2023/08/01 13:58:15;;;;;;;2.72;1.30;;;;;;;22.24;55.53;95534.94;2065803;28;20210;-65
2023/08/01 13:59:17;;;;;;;2.08;1.15;;;;;;;22.14;55.71;95526.31;2069235;28;20213;-65
2023/08/01 14:00:19;;;;;;;3.80;1.60;;;;;;;22.39;56.34;95535.09;2067077;28;20635;-65
2023/08/01 14:01:20;;;;;;;4.32;1.42;;;;;;;22.24;54.91;95531.44;2066807;28;20225;-65
2023/08/01 14:02:22;;;;;;;4.75;1.48;;;;;;;22.59;56.52;95527.59;2066254;28;20209;-65
2023/08/01 14:03:23;;;;;;;2.88;1.40;;;;;;;22.69;54.23;95526.56;2069139;28;20220;-65
2023/08/01 14:04:25;;;;;;;3.15;1.23;;;;;;;22.47;54.35;95526.28;2066636;28;20237;-65
2023/08/01 14:05:27;;;;;;;3.35;1.40;;;;;;;22.57;54.08;95515.47;2066295;28;20198;-65
2023/08/01 14:06:28;;;;;;;7.45;1.38;;;;;;;22.50;53.55;95525.97;2064437;28;20209;-65
2023/08/01 14:07:30;;;;;;;7.40;1.50;;;;;;;22.37;53.92;95522.97;2064460;28;20206;-65
2023/08/01 14:08:32;;;;;;;2.65;1.08;;;;;;;22.56;55.09;95527.91;2064454;28;20236;-65
2023/08/01 14:09:35;;;;;;;2.60;0.93;;;;;;;22.80;52.50;95534.16;2064031;28;20229;-66
2023/08/01 14:10:37;;;;;;;4.07;1.40;;;;;;;22.61;52.75;95517.63;2071463;28;20284;-65
2023/08/01 14:11:39;;;;;;;3.25;1.20;;;;;;;22.32;52.72;95515.47;2069911;28;20194;-66
2023/08/01 14:12:40;;;;;;;9.13;1.55;;;;;;;22.18;53.27;95528.47;2068652;28;20260;-66
2023/08/01 14:13:42;;;;;;;2.88;1.40;;;;;;;21.34;54.44;95533.88;2067066;28;20777;-66
2023/08/01 14:14:43;;;;;;;3.22;1.10;;;;;;;20.99;55.07;95522.50;2066004;28;20197;-66
2023/08/01 14:15:45;;;;;;;3.00;1.05;;;;;;;21.00;54.88;95534.78;2067697;28;20202;-65
2023/08/01 14:16:46;;;;;;;2.35;1.15;;;;;;;21.74;54.90;95534.13;2068988;28;20281;-65
2023/08/01 14:17:48;;;;;;;2.50;1.42;;;;;;;21.88;54.57;95527.31;2070530;28;20212;-65
2023/08/01 14:18:49;;;;;;;3.67;1.50;;;;;;;22.09;54.31;95532.13;2067744;28;20206;-66
2023/08/01 14:19:51;;;;;;;4.28;1.30;;;;;;;21.95;53.37;95528.34;2066791;28;20194;-67
2023/08/01 14:20:53;;;;;;;5.72;1.50;;;;;;;22.33;52.87;95522.47;2064000;28;20340;-67
2023/08/01 14:21:54;;;;;;;13.75;1.48;;;;;;;22.01;52.50;95524.16;2063731;28;20255;-67
2023/08/01 14:22:55;;;;;;;6.50;1.00;;;;;;;21.30;54.40;95521.91;2067550;28;20202;-66
2023/08/01 14:23:57;;;;;;;5.45;1.50;;;;;;;21.24;55.17;95525.19;2069951;28;20731;-66
2023/08/01 14:24:59;;;;;;;3.15;1.35;;;;;;;21.51;55.00;95525.94;2067653;28;20534;-66
2023/08/01 14:26:01;;;;;;;2.67;1.30;;;;;;;21.83;54.01;95534.97;2067377;28;20247;-66
2023/08/01 14:27:03;;;;;;;3.60;1.35;;;;;;;21.17;55.73;95529.50;2063945;28;20249;-66
2023/08/01 14:28:04;;;;;;;3.92;1.40;;;;;;;21.00;56.62;95533.91;2064032;28;20195;-66
2023/08/01 14:29:06;;;;;;;4.70;1.40;;;;;;;21.24;55.89;95529.69;2067474;28;20222;-67
2023/08/01 14:30:08;;;;;;;3.28;1.20;;;;;;;21.97;54.64;95528.16;2067767;28;20288;-66
2023/08/01 14:31:09;;;;;;;3.63;1.40;;;;;;;22.32;54.19;95539.41;2065623;28;20209;-67
2023/08/01 14:32:10;;;;;;;3.10;1.13;;;;;;;22.50;53.45;95534.75;2068207;28;20206;-67